sensor_id;sensor_type;location;lat;lon;timestamp;pressure;altitude;pressure_sealevel;temperature;humidity
75895;BME280;64573;50.328;15.014;2023-06-14T00:02:16;98745.25;;;8.49;95.53
75895;BME280;64573;50.328;15.014;2023-06-14T00:04:41;98741.41;;;8.44;95.23
75895;BME280;64573;50.328;15.014;2023-06-14T00:07:08;98740.63;;;8.35;95.84
75895;BME280;64573;50.328;15.014;2023-06-14T00:09:34;98740.28;;;8.22;95.37
75895;BME280;64573;50.328;15.014;2023-06-14T00:12:00;98738.84;;;8.11;95.07
75895;BME280;64573;50.328;15.014;2023-06-14T00:14:26;98733.84;;;8.00;95.45
75895;BME280;64573;50.328;15.014;2023-06-14T00:16:51;98745.19;;;8.02;95.15
75895;BME280;64573;50.328;15.014;2023-06-14T00:19:18;98732.63;;;8.19;95.48
75895;BME280;64573;50.328;15.014;2023-06-14T00:21:44;98730.41;;;8.30;95.76
75895;BME280;64573;50.328;15.014;2023-06-14T00:24:10;98735.09;;;8.37;96.25
75895;BME280;64573;50.328;15.014;2023-06-14T00:26:36;98733.22;;;8.45;96.85
75895;BME280;64573;50.328;15.014;2023-06-14T00:29:01;98736.03;;;8.52;97.47
75895;BME280;64573;50.328;15.014;2023-06-14T00:31:26;98738.66;;;8.60;96.78
75895;BME280;64573;50.328;15.014;2023-06-14T00:33:52;98740.50;;;8.60;96.89
75895;BME280;64573;50.328;15.014;2023-06-14T00:36:17;98741.88;;;8.55;96.57
75895;BME280;64573;50.328;15.014;2023-06-14T00:38:43;98739.03;;;8.57;96.48
75895;BME280;64573;50.328;15.014;2023-06-14T00:41:08;98738.47;;;8.62;96.13
75895;BME280;64573;50.328;15.014;2023-06-14T00:43:34;98736.34;;;8.57;96.36
75895;BME280;64573;50.328;15.014;2023-06-14T00:46:00;98738.06;;;8.50;96.37
75895;BME280;64573;50.328;15.014;2023-06-14T00:48:25;98738.09;;;8.42;96.06
75895;BME280;64573;50.328;15.014;2023-06-14T00:50:51;98733.75;;;8.41;95.75
75895;BME280;64573;50.328;15.014;2023-06-14T00:53:18;98732.03;;;8.56;96.12
75895;BME280;64573;50.328;15.014;2023-06-14T00:55:46;98737.75;;;8.76;95.70
75895;BME280;64573;50.328;15.014;2023-06-14T00:58:11;98736.84;;;8.92;95.23
75895;BME280;64573;50.328;15.014;2023-06-14T01:00:36;98728.94;;;8.98;94.48
75895;BME280;64573;50.328;15.014;2023-06-14T01:03:02;98725.03;;;9.09;94.51
75895;BME280;64573;50.328;15.014;2023-06-14T01:05:28;98728.13;;;9.21;93.40
75895;BME280;64573;50.328;15.014;2023-06-14T01:08:45;98737.25;;;9.26;93.17
75895;BME280;64573;50.328;15.014;2023-06-14T01:11:07;98733.03;;;9.32;92.48
75895;BME280;64573;50.328;15.014;2023-06-14T01:13:38;98738.28;;;9.25;93.54
75895;BME280;64573;50.328;15.014;2023-06-14T01:16:05;98743.25;;;9.51;92.28
75895;BME280;64573;50.328;15.014;2023-06-14T01:18:31;98752.31;;;9.27;91.77
75895;BME280;64573;50.328;15.014;2023-06-14T01:20:58;98749.19;;;8.93;91.69
75895;BME280;64573;50.328;15.014;2023-06-14T01:23:25;98744.47;;;8.72;92.94
75895;BME280;64573;50.328;15.014;2023-06-14T01:25:58;98748.63;;;8.74;93.77
75895;BME280;64573;50.328;15.014;2023-06-14T01:28:23;98748.75;;;8.81;93.70
75895;BME280;64573;50.328;15.014;2023-06-14T01:30:52;98752.22;;;8.90;94.18
75895;BME280;64573;50.328;15.014;2023-06-14T01:33:23;98760.28;;;9.13;94.03
75895;BME280;64573;50.328;15.014;2023-06-14T01:35:52;98752.06;;;9.37;94.56
75895;BME280;64573;50.328;15.014;2023-06-14T01:38:20;98748.53;;;9.59;93.40
75895;BME280;64573;50.328;15.014;2023-06-14T01:40:47;98745.38;;;9.79;92.93
75895;BME280;64573;50.328;15.014;2023-06-14T01:43:15;98740.03;;;9.93;92.22
75895;BME280;64573;50.328;15.014;2023-06-14T01:45:42;98749.66;;;10.03;91.36
75895;BME280;64573;50.328;15.014;2023-06-14T01:48:11;98751.25;;;10.27;89.89
75895;BME280;64573;50.328;15.014;2023-06-14T01:50:37;98750.22;;;10.42;88.24
75895;BME280;64573;50.328;15.014;2023-06-14T01:53:02;98752.44;;;10.54;87.50
75895;BME280;64573;50.328;15.014;2023-06-14T01:55:27;98752.16;;;10.63;86.23
75895;BME280;64573;50.328;15.014;2023-06-14T01:57:53;98745.09;;;10.77;85.83
75895;BME280;64573;50.328;15.014;2023-06-14T02:00:20;98744.69;;;10.59;86.49
75895;BME280;64573;50.328;15.014;2023-06-14T02:02:46;98745.22;;;10.69;85.66
75895;BME280;64573;50.328;15.014;2023-06-14T02:05:12;98736.03;;;10.78;85.53
75895;BME280;64573;50.328;15.014;2023-06-14T02:07:38;98746.22;;;10.83;85.00
75895;BME280;64573;50.328;15.014;2023-06-14T02:10:04;98736.81;;;10.93;84.39
75895;BME280;64573;50.328;15.014;2023-06-14T02:12:30;98737.94;;;10.99;84.05
75895;BME280;64573;50.328;15.014;2023-06-14T02:14:55;98748.94;;;11.04;83.11
75895;BME280;64573;50.328;15.014;2023-06-14T02:17:22;98742.34;;;11.07;83.44
75895;BME280;64573;50.328;15.014;2023-06-14T02:19:47;98744.59;;;11.03;83.75
75895;BME280;64573;50.328;15.014;2023-06-14T02:22:13;98748.66;;;10.99;83.96
75895;BME280;64573;50.328;15.014;2023-06-14T02:24:40;98748.72;;;11.05;83.76
75895;BME280;64573;50.328;15.014;2023-06-14T02:27:05;98741.16;;;11.09;83.26
75895;BME280;64573;50.328;15.014;2023-06-14T02:29:32;98759.63;;;11.19;82.20
75895;BME280;64573;50.328;15.014;2023-06-14T02:31:57;98743.19;;;11.28;81.87
75895;BME280;64573;50.328;15.014;2023-06-14T02:34:22;98746.34;;;11.32;81.66
75895;BME280;64573;50.328;15.014;2023-06-14T02:36:48;98748.81;;;11.33;81.39
75895;BME280;64573;50.328;15.014;2023-06-14T02:39:13;98740.84;;;11.40;81.07
75895;BME280;64573;50.328;15.014;2023-06-14T02:41:39;98747.22;;;11.39;80.69
75895;BME280;64573;50.328;15.014;2023-06-14T02:44:04;98743.66;;;11.32;80.88
75895;BME280;64573;50.328;15.014;2023-06-14T02:46:30;98736.69;;;11.38;81.11
75895;BME280;64573;50.328;15.014;2023-06-14T02:48:55;98743.13;;;11.43;80.80
75895;BME280;64573;50.328;15.014;2023-06-14T02:51:20;98746.63;;;11.44;80.67
75895;BME280;64573;50.328;15.014;2023-06-14T02:53:46;98738.59;;;11.44;80.29
75895;BME280;64573;50.328;15.014;2023-06-14T02:56:11;98742.34;;;11.49;80.47
75895;BME280;64573;50.328;15.014;2023-06-14T02:58:37;98734.50;;;11.48;79.85
75895;BME280;64573;50.328;15.014;2023-06-14T03:01:04;98739.59;;;11.43;80.05
75895;BME280;64573;50.328;15.014;2023-06-14T03:03:30;98743.78;;;11.45;80.20
75895;BME280;64573;50.328;15.014;2023-06-14T03:05:56;98742.34;;;11.49;79.71
75895;BME280;64573;50.328;15.014;2023-06-14T03:08:21;98743.44;;;11.55;79.78
75895;BME280;64573;50.328;15.014;2023-06-14T03:10:52;98732.56;;;11.63;79.17
75895;BME280;64573;50.328;15.014;2023-06-14T03:13:18;98743.63;;;11.75;77.98
75895;BME280;64573;50.328;15.014;2023-06-14T03:15:46;98740.25;;;11.66;78.74
75895;BME280;64573;50.328;15.014;2023-06-14T03:18:13;98741.31;;;11.72;78.11
75895;BME280;64573;50.328;15.014;2023-06-14T03:20:40;98735.09;;;11.71;78.22
75895;BME280;64573;50.328;15.014;2023-06-14T03:23:06;98753.34;;;11.76;77.73
75895;BME280;64573;50.328;15.014;2023-06-14T03:25:31;98743.50;;;11.62;78.38
75895;BME280;64573;50.328;15.014;2023-06-14T03:28:03;98746.69;;;11.50;79.98
75895;BME280;64573;50.328;15.014;2023-06-14T03:30:30;98755.59;;;11.51;79.79
75895;BME280;64573;50.328;15.014;2023-06-14T03:32:55;98755.22;;;11.54;80.73
75895;BME280;64573;50.328;15.014;2023-06-14T03:35:21;98765.94;;;11.11;82.02
75895;BME280;64573;50.328;15.014;2023-06-14T03:37:46;98767.25;;;11.00;83.09
75895;BME280;64573;50.328;15.014;2023-06-14T03:40:13;98769.88;;;10.79;84.10
75895;BME280;64573;50.328;15.014;2023-06-14T03:42:39;98768.81;;;10.73;84.94
75895;BME280;64573;50.328;15.014;2023-06-14T03:45:05;98780.84;;;10.48;85.39
75895;BME280;64573;50.328;15.014;2023-06-14T03:47:31;98789.25;;;10.45;85.91
75895;BME280;64573;50.328;15.014;2023-06-14T03:49:57;98783.25;;;10.43;86.65
75895;BME280;64573;50.328;15.014;2023-06-14T03:52:22;98779.56;;;10.59;86.58
75895;BME280;64573;50.328;15.014;2023-06-14T03:54:48;98780.19;;;10.46;86.96
75895;BME280;64573;50.328;15.014;2023-06-14T03:57:15;98776.03;;;10.58;86.06
75895;BME280;64573;50.328;15.014;2023-06-14T03:59:40;98783.25;;;10.58;85.93
75895;BME280;64573;50.328;15.014;2023-06-14T04:02:06;98793.13;;;10.57;85.85
75895;BME280;64573;50.328;15.014;2023-06-14T04:04:32;98799.25;;;10.51;86.16
75895;BME280;64573;50.328;15.014;2023-06-14T04:06:58;98785.47;;;10.54;86.27
75895;BME280;64573;50.328;15.014;2023-06-14T04:09:26;98791.94;;;10.45;86.80
75895;BME280;64573;50.328;15.014;2023-06-14T04:11:52;98798.13;;;10.45;87.15
75895;BME280;64573;50.328;15.014;2023-06-14T04:14:19;98800.91;;;10.52;87.27
75895;BME280;64573;50.328;15.014;2023-06-14T04:16:46;98794.16;;;10.41;88.24
75895;BME280;64573;50.328;15.014;2023-06-14T04:19:11;98805.34;;;10.30;88.67
75895;BME280;64573;50.328;15.014;2023-06-14T04:21:36;98798.13;;;10.45;87.72
75895;BME280;64573;50.328;15.014;2023-06-14T04:24:02;98799.59;;;10.63;87.01
75895;BME280;64573;50.328;15.014;2023-06-14T04:26:28;98812.81;;;10.64;86.88
75895;BME280;64573;50.328;15.014;2023-06-14T04:28:55;98793.50;;;10.69;87.58
75895;BME280;64573;50.328;15.014;2023-06-14T04:31:22;98799.41;;;10.64;88.07
75895;BME280;64573;50.328;15.014;2023-06-14T04:33:50;98799.50;;;10.41;89.82
75895;BME280;64573;50.328;15.014;2023-06-14T04:36:16;98797.72;;;10.78;90.11
75895;BME280;64573;50.328;15.014;2023-06-14T04:38:43;98800.94;;;11.39;88.14
75895;BME280;64573;50.328;15.014;2023-06-14T04:41:10;98796.13;;;11.56;86.85
75895;BME280;64573;50.328;15.014;2023-06-14T04:43:37;98799.13;;;12.10;83.52
75895;BME280;64573;50.328;15.014;2023-06-14T04:46:06;98795.91;;;12.56;82.11
75895;BME280;64573;50.328;15.014;2023-06-14T04:48:42;98811.16;;;12.84;78.80
75895;BME280;64573;50.328;15.014;2023-06-14T04:51:08;98802.06;;;13.33;75.82
75895;BME280;64573;50.328;15.014;2023-06-14T04:53:34;98811.56;;;13.29;76.29
75895;BME280;64573;50.328;15.014;2023-06-14T04:56:00;98806.03;;;13.50;76.07
75895;BME280;64573;50.328;15.014;2023-06-14T04:58:27;98810.03;;;13.87;75.31
75895;BME280;64573;50.328;15.014;2023-06-14T05:00:54;98815.19;;;13.82;77.64
75895;BME280;64573;50.328;15.014;2023-06-14T05:03:21;98819.34;;;13.71;77.64
75895;BME280;64573;50.328;15.014;2023-06-14T05:05:46;98802.94;;;13.66;76.49
75895;BME280;64573;50.328;15.014;2023-06-14T05:08:12;98816.59;;;13.51;77.14
75895;BME280;64573;50.328;15.014;2023-06-14T05:10:38;98818.53;;;13.16;77.87
75895;BME280;64573;50.328;15.014;2023-06-14T05:13:03;98821.63;;;13.07;77.90
75895;BME280;64573;50.328;15.014;2023-06-14T05:15:29;98821.59;;;13.00;80.50
75895;BME280;64573;50.328;15.014;2023-06-14T05:17:54;98819.59;;;12.74;81.24
75895;BME280;64573;50.328;15.014;2023-06-14T05:20:21;98817.63;;;12.89;80.82
75895;BME280;64573;50.328;15.014;2023-06-14T05:25:16;98824.53;;;14.59;76.37
75895;BME280;64573;50.328;15.014;2023-06-14T05:27:42;98821.78;;;15.37;71.74
75895;BME280;64573;50.328;15.014;2023-06-14T05:30:07;98821.09;;;15.41;70.98
75895;BME280;64573;50.328;15.014;2023-06-14T05:32:33;98821.84;;;15.55;68.46
75895;BME280;64573;50.328;15.014;2023-06-14T05:34:59;98822.63;;;16.25;64.85
75895;BME280;64573;50.328;15.014;2023-06-14T05:39:53;98825.44;;;16.99;56.66
75895;BME280;64573;50.328;15.014;2023-06-14T05:42:19;98828.59;;;17.62;54.95
75895;BME280;64573;50.328;15.014;2023-06-14T05:44:44;98820.06;;;17.47;53.88
75895;BME280;64573;50.328;15.014;2023-06-14T05:47:09;98829.50;;;18.28;53.20
75895;BME280;64573;50.328;15.014;2023-06-14T05:49:35;98836.84;;;18.74;49.73
75895;BME280;64573;50.328;15.014;2023-06-14T05:52:00;98841.56;;;18.79;49.06
75895;BME280;64573;50.328;15.014;2023-06-14T05:54:25;98836.28;;;19.53;46.56
75895;BME280;64573;50.328;15.014;2023-06-14T05:56:51;98844.03;;;18.57;47.69
75895;BME280;64573;50.328;15.014;2023-06-14T05:59:16;98842.75;;;17.83;48.17
75895;BME280;64573;50.328;15.014;2023-06-14T06:01:41;98845.25;;;18.08;49.21
75895;BME280;64573;50.328;15.014;2023-06-14T06:04:07;98845.28;;;18.19;50.16
75895;BME280;64573;50.328;15.014;2023-06-14T06:06:32;98853.16;;;18.09;50.30
75895;BME280;64573;50.328;15.014;2023-06-14T06:08:58;98845.91;;;19.04;48.59
75895;BME280;64573;50.328;15.014;2023-06-14T06:11:24;98858.41;;;19.16;46.86
75895;BME280;64573;50.328;15.014;2023-06-14T06:13:50;98851.94;;;19.06;47.37
75895;BME280;64573;50.328;15.014;2023-06-14T06:16:15;98848.91;;;18.90;46.31
75895;BME280;64573;50.328;15.014;2023-06-14T06:18:44;98848.19;;;18.83;47.03
75895;BME280;64573;50.328;15.014;2023-06-14T06:21:09;98852.53;;;19.76;45.32
75895;BME280;64573;50.328;15.014;2023-06-14T06:23:41;98852.13;;;20.63;44.74
75895;BME280;64573;50.328;15.014;2023-06-14T06:26:06;98856.56;;;20.02;46.42
75895;BME280;64573;50.328;15.014;2023-06-14T06:28:32;98858.41;;;20.64;42.63
75895;BME280;64573;50.328;15.014;2023-06-14T06:30:58;98868.44;;;20.58;42.94
75895;BME280;64573;50.328;15.014;2023-06-14T06:33:23;98861.34;;;20.12;42.87
75895;BME280;64573;50.328;15.014;2023-06-14T06:35:48;98862.19;;;19.27;43.82
75895;BME280;64573;50.328;15.014;2023-06-14T06:38:14;98859.03;;;19.59;43.77
75895;BME280;64573;50.328;15.014;2023-06-14T06:40:39;98856.84;;;19.72;42.74
75895;BME280;64573;50.328;15.014;2023-06-14T06:45:30;98861.22;;;19.73;41.39
75895;BME280;64573;50.328;15.014;2023-06-14T06:47:58;98864.66;;;19.69;40.79
75895;BME280;64573;50.328;15.014;2023-06-14T06:50:23;98871.34;;;20.90;37.93
75895;BME280;64573;50.328;15.014;2023-06-14T06:52:50;98869.78;;;20.27;39.83
75895;BME280;64573;50.328;15.014;2023-06-14T06:55:16;98865.66;;;20.25;40.24
75895;BME280;64573;50.328;15.014;2023-06-14T06:57:41;98867.56;;;21.13;39.59
75895;BME280;64573;50.328;15.014;2023-06-14T07:00:07;98865.91;;;20.40;38.73
75895;BME280;64573;50.328;15.014;2023-06-14T07:02:36;98873.16;;;20.85;37.85
75895;BME280;64573;50.328;15.014;2023-06-14T07:05:02;98884.31;;;20.16;41.16
75895;BME280;64573;50.328;15.014;2023-06-14T07:07:27;98880.78;;;19.87;43.16
75895;BME280;64573;50.328;15.014;2023-06-14T07:09:52;98888.44;;;19.10;43.76
75895;BME280;64573;50.328;15.014;2023-06-14T07:12:18;98895.78;;;18.86;41.21
75895;BME280;64573;50.328;15.014;2023-06-14T07:14:43;98895.88;;;19.14;40.90
75895;BME280;64573;50.328;15.014;2023-06-14T07:17:09;98891.59;;;19.18;41.58
75895;BME280;64573;50.328;15.014;2023-06-14T07:19:34;98896.59;;;18.63;44.98
75895;BME280;64573;50.328;15.014;2023-06-14T07:22:00;98893.31;;;18.84;44.07
75895;BME280;64573;50.328;15.014;2023-06-14T07:26:54;98909.06;;;18.40;44.37
75895;BME280;64573;50.328;15.014;2023-06-14T07:34:15;98897.16;;;19.35;41.23
75895;BME280;64573;50.328;15.014;2023-06-14T07:36:40;98901.13;;;20.13;39.98
75895;BME280;64573;50.328;15.014;2023-06-14T07:39:06;98899.59;;;20.84;39.31
75895;BME280;64573;50.328;15.014;2023-06-14T07:41:32;98906.22;;;20.55;40.37
75895;BME280;64573;50.328;15.014;2023-06-14T07:43:57;98901.72;;;20.15;42.89
75895;BME280;64573;50.328;15.014;2023-06-14T07:46:23;98901.38;;;21.12;39.08
75895;BME280;64573;50.328;15.014;2023-06-14T07:48:48;98895.63;;;20.25;41.54
75895;BME280;64573;50.328;15.014;2023-06-14T07:51:14;98902.81;;;19.86;41.91
75895;BME280;64573;50.328;15.014;2023-06-14T07:53:39;98901.22;;;20.35;41.59
75895;BME280;64573;50.328;15.014;2023-06-14T07:56:06;98905.91;;;21.89;37.56
75895;BME280;64573;50.328;15.014;2023-06-14T07:58:34;98909.34;;;21.36;37.29
75895;BME280;64573;50.328;15.014;2023-06-14T08:00:59;98914.88;;;21.63;39.90
75895;BME280;64573;50.328;15.014;2023-06-14T08:03:26;98910.41;;;21.52;37.78
75895;BME280;64573;50.328;15.014;2023-06-14T08:05:52;98905.91;;;20.68;40.68
75895;BME280;64573;50.328;15.014;2023-06-14T08:08:17;98911.81;;;19.86;40.79
75895;BME280;64573;50.328;15.014;2023-06-14T08:10:43;98918.16;;;20.37;40.85
75895;BME280;64573;50.328;15.014;2023-06-14T08:13:09;98921.78;;;19.69;41.32
75895;BME280;64573;50.328;15.014;2023-06-14T08:15:35;98918.06;;;20.32;41.34
75895;BME280;64573;50.328;15.014;2023-06-14T08:18:00;98924.03;;;20.00;41.60
75895;BME280;64573;50.328;15.014;2023-06-14T08:28:11;98913.25;;;18.90;42.95
75895;BME280;64573;50.328;15.014;2023-06-14T08:35:45;98910.63;;;22.21;35.81
75895;BME280;64573;50.328;15.014;2023-06-14T08:51:06;98906.44;;;22.40;35.32
75895;BME280;64573;50.328;15.014;2023-06-14T08:53:33;98911.19;;;22.23;37.44
75895;BME280;64573;50.328;15.014;2023-06-14T08:56:02;98915.25;;;23.22;34.56
75895;BME280;64573;50.328;15.014;2023-06-14T08:58:30;98915.66;;;21.19;38.30
75895;BME280;64573;50.328;15.014;2023-06-14T09:00:57;98914.97;;;22.49;36.80
75895;BME280;64573;50.328;15.014;2023-06-14T09:03:23;98916.81;;;22.70;36.41
75895;BME280;64573;50.328;15.014;2023-06-14T09:05:56;98919.44;;;22.28;37.20
75895;BME280;64573;50.328;15.014;2023-06-14T09:08:21;98914.50;;;21.54;36.89
75895;BME280;64573;50.328;15.014;2023-06-14T09:10:47;98914.09;;;21.24;38.44
75895;BME280;64573;50.328;15.014;2023-06-14T09:13:12;98914.72;;;20.75;37.57
75895;BME280;64573;50.328;15.014;2023-06-14T09:15:38;98923.34;;;20.50;40.60
75895;BME280;64573;50.328;15.014;2023-06-14T09:18:03;98922.03;;;20.24;41.87
75895;BME280;64573;50.328;15.014;2023-06-14T09:20:29;98928.38;;;19.09;41.60
75895;BME280;64573;50.328;15.014;2023-06-14T09:22:55;98931.25;;;19.78;41.56
75895;BME280;64573;50.328;15.014;2023-06-14T09:25:21;98926.81;;;19.48;42.97
75895;BME280;64573;50.328;15.014;2023-06-14T09:27:48;98925.97;;;19.60;41.72
75895;BME280;64573;50.328;15.014;2023-06-14T09:30:13;98935.47;;;19.10;42.83
75895;BME280;64573;50.328;15.014;2023-06-14T09:32:39;98928.72;;;19.76;42.43
75895;BME280;64573;50.328;15.014;2023-06-14T09:35:08;98926.16;;;19.98;41.80
75895;BME280;64573;50.328;15.014;2023-06-14T09:37:34;98928.50;;;19.78;40.98
75895;BME280;64573;50.328;15.014;2023-06-14T09:40:00;98927.78;;;20.73;38.11
75895;BME280;64573;50.328;15.014;2023-06-14T09:42:26;98921.69;;;21.38;35.85
75895;BME280;64573;50.328;15.014;2023-06-14T09:44:53;98924.78;;;20.13;43.83
75895;BME280;64573;50.328;15.014;2023-06-14T09:47:20;98929.03;;;19.40;42.26
75895;BME280;64573;50.328;15.014;2023-06-14T09:52:22;98924.38;;;18.88;45.63
75895;BME280;64573;50.328;15.014;2023-06-14T09:59:56;98917.50;;;18.74;44.68
75895;BME280;64573;50.328;15.014;2023-06-14T10:04:58;98925.41;;;19.11;45.35
75895;BME280;64573;50.328;15.014;2023-06-14T10:07:30;98923.03;;;19.38;45.94
75895;BME280;64573;50.328;15.014;2023-06-14T10:09:57;98924.47;;;19.28;43.73
75895;BME280;64573;50.328;15.014;2023-06-14T10:12:23;98915.56;;;19.45;43.30
75895;BME280;64573;50.328;15.014;2023-06-14T10:19:54;98905.50;;;20.59;40.57
75895;BME280;64573;50.328;15.014;2023-06-14T10:22:30;98905.91;;;20.51;40.57
75895;BME280;64573;50.328;15.014;2023-06-14T10:24:57;98911.97;;;20.25;41.83
75895;BME280;64573;50.328;15.014;2023-06-14T10:27:22;98911.69;;;20.55;39.67
75895;BME280;64573;50.328;15.014;2023-06-14T10:32:24;98911.78;;;20.15;39.77
75895;BME280;64573;50.328;15.014;2023-06-14T10:37:20;98905.59;;;20.19;39.12
75895;BME280;64573;50.328;15.014;2023-06-14T10:39:45;98909.59;;;19.71;41.44
75895;BME280;64573;50.328;15.014;2023-06-14T10:42:12;98906.88;;;20.00;42.68
75895;BME280;64573;50.328;15.014;2023-06-14T10:44:42;98905.31;;;19.35;41.34
75895;BME280;64573;50.328;15.014;2023-06-14T10:49:51;98909.34;;;20.30;39.62
75895;BME280;64573;50.328;15.014;2023-06-14T10:52:21;98917.03;;;19.76;42.50
75895;BME280;64573;50.328;15.014;2023-06-14T10:57:37;98912.53;;;18.83;47.86
75895;BME280;64573;50.328;15.014;2023-06-14T11:00:05;98908.44;;;18.92;47.06
75895;BME280;64573;50.328;15.014;2023-06-14T11:05:03;98916.09;;;18.71;46.57
75895;BME280;64573;50.328;15.014;2023-06-14T11:10:35;98918.16;;;18.46;45.18
75895;BME280;64573;50.328;15.014;2023-06-14T11:13:01;98907.94;;;19.07;45.26
75895;BME280;64573;50.328;15.014;2023-06-14T11:15:30;98912.53;;;18.83;46.17
75895;BME280;64573;50.328;15.014;2023-06-14T11:17:57;98907.38;;;18.93;46.34
75895;BME280;64573;50.328;15.014;2023-06-14T11:20:26;98904.63;;;19.05;47.57
75895;BME280;64573;50.328;15.014;2023-06-14T11:22:52;98909.72;;;19.13;44.95
75895;BME280;64573;50.328;15.014;2023-06-14T11:25:18;98910.16;;;19.21;45.90
75895;BME280;64573;50.328;15.014;2023-06-14T11:27:44;98909.47;;;19.14;44.67
75895;BME280;64573;50.328;15.014;2023-06-14T11:30:10;98916.19;;;19.23;43.76
75895;BME280;64573;50.328;15.014;2023-06-14T11:32:39;98913.47;;;19.35;43.93
75895;BME280;64573;50.328;15.014;2023-06-14T11:35:06;98906.59;;;19.33;43.56
75895;BME280;64573;50.328;15.014;2023-06-14T11:37:31;98910.84;;;19.92;43.81
75895;BME280;64573;50.328;15.014;2023-06-14T11:40:01;98906.78;;;19.95;43.25
75895;BME280;64573;50.328;15.014;2023-06-14T11:44:57;98904.81;;;20.35;40.92
75895;BME280;64573;50.328;15.014;2023-06-14T11:47:23;98905.19;;;20.27;42.87
75895;BME280;64573;50.328;15.014;2023-06-14T11:49:48;98904.78;;;19.90;43.35
75895;BME280;64573;50.328;15.014;2023-06-14T11:52:14;98901.75;;;20.03;41.24
75895;BME280;64573;50.328;15.014;2023-06-14T11:54:40;98902.34;;;20.68;41.42
75895;BME280;64573;50.328;15.014;2023-06-14T11:57:09;98908.72;;;20.73;40.86
75895;BME280;64573;50.328;15.014;2023-06-14T11:59:39;98903.22;;;20.90;40.86
75895;BME280;64573;50.328;15.014;2023-06-14T12:04:34;98908.59;;;21.02;41.20
75895;BME280;64573;50.328;15.014;2023-06-14T12:07:12;98908.97;;;20.72;39.99
75895;BME280;64573;50.328;15.014;2023-06-14T12:09:39;98899.38;;;20.86;38.75
75895;BME280;64573;50.328;15.014;2023-06-14T12:12:05;98898.56;;;21.07;39.42
75895;BME280;64573;50.328;15.014;2023-06-14T12:14:30;98898.19;;;20.31;41.68
75895;BME280;64573;50.328;15.014;2023-06-14T12:19:28;98900.06;;;20.98;41.19
75895;BME280;64573;50.328;15.014;2023-06-14T12:21:54;98896.47;;;21.14;39.86
75895;BME280;64573;50.328;15.014;2023-06-14T12:24:19;98898.63;;;20.57;42.34
75895;BME280;64573;50.328;15.014;2023-06-14T12:26:44;98899.03;;;20.49;41.34
75895;BME280;64573;50.328;15.014;2023-06-14T12:31:44;98886.53;;;20.19;38.26
75895;BME280;64573;50.328;15.014;2023-06-14T12:34:09;98894.81;;;20.91;38.22
75895;BME280;64573;50.328;15.014;2023-06-14T12:36:35;98884.50;;;20.43;36.96
75895;BME280;64573;50.328;15.014;2023-06-14T12:39:04;98888.50;;;21.08;36.00
75895;BME280;64573;50.328;15.014;2023-06-14T12:41:29;98880.25;;;21.41;33.96
75895;BME280;64573;50.328;15.014;2023-06-14T12:43:55;98879.03;;;21.54;36.22
75895;BME280;64573;50.328;15.014;2023-06-14T12:46:20;98873.59;;;22.35;35.24
75895;BME280;64573;50.328;15.014;2023-06-14T12:48:49;98875.28;;;23.16;35.64
75895;BME280;64573;50.328;15.014;2023-06-14T12:51:14;98879.19;;;23.30;33.44
75895;BME280;64573;50.328;15.014;2023-06-14T12:53:39;98881.47;;;23.48;33.30
75895;BME280;64573;50.328;15.014;2023-06-14T12:56:05;98873.59;;;23.09;33.16
75895;BME280;64573;50.328;15.014;2023-06-14T12:58:31;98873.75;;;24.33;30.22
75895;BME280;64573;50.328;15.014;2023-06-14T13:00:56;98873.91;;;23.71;32.19
75895;BME280;64573;50.328;15.014;2023-06-14T13:03:21;98876.09;;;23.74;31.76
75895;BME280;64573;50.328;15.014;2023-06-14T13:05:47;98875.66;;;23.34;33.67
75895;BME280;64573;50.328;15.014;2023-06-14T13:21:08;98876.69;;;23.18;32.77
75895;BME280;64573;50.328;15.014;2023-06-14T13:26:09;98872.34;;;23.27;32.42
75895;BME280;64573;50.328;15.014;2023-06-14T13:36:11;98860.03;;;24.28;31.93
75895;BME280;64573;50.328;15.014;2023-06-14T13:38:37;98862.72;;;23.92;33.44
75895;BME280;64573;50.328;15.014;2023-06-14T13:41:02;98868.19;;;23.20;33.75
75895;BME280;64573;50.328;15.014;2023-06-14T13:43:27;98868.69;;;22.37;34.64
75895;BME280;64573;50.328;15.014;2023-06-14T13:45:53;98859.22;;;22.82;34.00
75895;BME280;64573;50.328;15.014;2023-06-14T13:48:19;98878.56;;;23.75;32.59
75895;BME280;64573;50.328;15.014;2023-06-14T13:50:44;98874.19;;;23.11;33.81
75895;BME280;64573;50.328;15.014;2023-06-14T13:53:11;98864.19;;;21.67;39.18
75895;BME280;64573;50.328;15.014;2023-06-14T13:55:36;98866.53;;;21.36;39.92
75895;BME280;64573;50.328;15.014;2023-06-14T13:58:02;98868.44;;;20.97;38.77
75895;BME280;64573;50.328;15.014;2023-06-14T14:00:27;98866.16;;;21.28;38.97
75895;BME280;64573;50.328;15.014;2023-06-14T14:08:03;98868.69;;;23.64;31.81
75895;BME280;64573;50.328;15.014;2023-06-14T14:20:37;98864.31;;;25.91;28.29
75895;BME280;64573;50.328;15.014;2023-06-14T14:23:02;98864.25;;;27.27;26.11
75895;BME280;64573;50.328;15.014;2023-06-14T14:33:14;98850.56;;;29.97;24.28
75895;BME280;64573;50.328;15.014;2023-06-14T14:35:45;98859.41;;;29.99;23.34
75895;BME280;64573;50.328;15.014;2023-06-14T14:38:11;98852.41;;;30.37;23.50
75895;BME280;64573;50.328;15.014;2023-06-14T14:45:48;98855.44;;;30.50;21.99
75895;BME280;64573;50.328;15.014;2023-06-14T14:58:27;98864.09;;;21.18;37.40
75895;BME280;64573;50.328;15.014;2023-06-14T15:05:57;98851.88;;;20.82;39.99
75895;BME280;64573;50.328;15.014;2023-06-14T16:02:31;98847.84;;;19.72;48.56
75895;BME280;64573;50.328;15.014;2023-06-14T16:04:56;98850.03;;;19.46;48.98
75895;BME280;64573;50.328;15.014;2023-06-14T16:15:08;98849.28;;;20.92;44.93
75895;BME280;64573;50.328;15.014;2023-06-14T16:17:33;98846.59;;;21.85;42.79